Monday, November 24, 2014
04:00 UTC
  |  Log In   |  Register Free
Airport Search:

Hobart Regional Airport
(KHBR)

Hobart Regional Airport Diagram
No Airport Diagram Available

FAA data valid effective November 13, 2014 - January 08, 2015 (unless otherwise noted).

 
 
 
 
 
 
 
 
 
 
 
 
 
 

Current Aviation Weather for Hobart Regional Airport (KHBR)

The most recent METAR observation for KHBR was updated at: 0228
METAR Summary (Translated METAR)
KHBR
240153Z AUTO 31009KT 10SM OVC100 08/02 A2976 RMK AO2 SLP077 T00830017
KCSM
240153Z AUTO 31011KT 10SM BKN100 BKN120 09/M01 A2976 RMK AO2 SLP075 T00891006 $
(22.2 nm NW from KHBR)
KAXS
240155Z AUTO 33011KT 10SM CLR 10/01 A2979 RMK AO2 T01010014
(22.5 nm SW from KHBR)
TAF Summary (Translated TAF)
KHBR
231733Z 2318/2418 33028G40KT P6SM BKN035 FM240000 31016G25KT P6SM SCT100 FM240200 30010KT P6SM FEW150 FM241600 29015G22KT P6SM SKC
KCSM
(22.2 nm NW from KHBR)
231733Z 2318/2418 33028G40KT P6SM BKN035 FM240000 31016G25KT P6SM SCT100 FM240200 30010KT P6SM FEW150 FM241600 29015G22KT P6SM SKC
  Airport Weather Conditions for KHBR

 Current Weather at HBR
47° F
A Few Clouds
Northwest winds at 11.5 mph
HBR NOAA Radar

Pressure: 29.78 in
Humidity: 61%
Wind: Northwest at 11.5 MPH (10 KT)
Dew Point: 34.0°F
Visibility: 10.00 mi


Airport Weather Forecast for KHBR

Translated METAR and TAF for KHBR
Translated METAR for KHBR (0355 UTC 24 November 2014)
found at http://aviationweather.gov/adds/metars/
 
METAR text: KHBR 240253Z AUTO 31010KT 10SM FEW120 08/01 A2978 RMK AO2 SLP083 T00830011 51023
Conditions at: KHBR (HOBART , OK, US) observed 0253 UTC 24 November 2014
Temperature: 8.3°C (47°F)
Dewpoint: 1.1°C (34°F) [RH = 60%]
Pressure (altimeter): 29.78 inches Hg (1008.5 mb)
[Sea-level pressure: 1008.3 mb]
Winds: from the NW (310 degrees) at 12 MPH (10 knots; 5.2 m/s)
Visibility: 10 or more miles (16+ km)
Ceiling: at least 12,000 feet AGL
Clouds: few clouds at 12000 feet AGL
Weather: automated observation with no human augmentation;
there may or may not be significant weather present at this time
Translated TAF for KHBR
Forecast for: KHBR (HOBART , OK, US)
TAF Text: KHBR 232323Z 2400/2424 34024G35KT P6SM BKN100
Forecast period: 0000 to 0200 UTC 24 November 2014
Forecast type: FROM: standard forecast or significant change
Winds: from the NNW (340 degrees) at 28 MPH (24 knots; 12.5 m/s)
gusting to 40 MPH (35 knots; 18.2 m/s)
Visibility: 6 or more miles (10+ km)
Ceiling: 10000 feet AGL
Clouds: broken clouds at 10000 feet AGL
Weather: no significant weather forecast for this period
TAF Text: TEMPO 2400/2402 -RA OVC040
Forecast period: 0000 to 0200 UTC 24 November 2014
Forecast type: TEMPORARY: The following changes expected for less than half the time period
Ceiling: 4000 feet AGL
Clouds: overcast cloud deck at 4000 feet AGL
Weather: -RA  (light rain)
TAF Text: FM240200 31011KT P6SM SCT150
Forecast period: 0200 to 1600 UTC 24 November 2014
Forecast type: FROM: standard forecast or significant change
Winds: from the NW (310 degrees) at 13 MPH (11 knots; 5.7 m/s)
Visibility: 6 or more miles (10+ km)
Clouds: scattered clouds at 15000 feet AGL
Weather: no significant weather forecast for this period
TAF Text: FM241600 29015G23KT P6SM SKC
Forecast period: 1600 UTC 24 November 2014 to 0000 UTC 25 November 2014
Forecast type: FROM: standard forecast or significant change
Winds: from the WNW (290 degrees) at 17 MPH (15 knots; 7.8 m/s)
gusting to 26 MPH (23 knots; 12.0 m/s)
Visibility: 6 or more miles (10+ km)
Clouds: clear skies
Weather: no significant weather forecast for this period

Find All Airport Services Find A Hotel Find A Rental Car Find A Golf Course Find A Restaurant $100 Hamburger



FBO's on the Field
FBO Company Facility Photos Services Transportation Aviation Fuel Prices: Prices include tax
Catering Weather Repair Courtesy Rental Type 100LL JetA JetA+ MOGAS 8087
 
City of Hobart

Currently rated 2.8 by 1 person
FS:Phillips 66
Last Updated: Oct-14
Login to update fuel prices
SS:
Contact City of HobartMore FBO Information
 
Add another FBO Facility Photos Catering Weather Repair Courtesy Rental Type 100LL JetA JetA+ MOGAS 8087
Services Transportation Aviation Fuel Prices: Prices include tax


model-print
model-print
model-print
model-print